createdAt,value
2022-10-07T00:00:52.839Z,101730.20
2022-10-07T00:03:37.441Z,101735.60
2022-10-07T00:06:14.912Z,101731.40
2022-10-07T00:08:50.544Z,101718.60
2022-10-07T00:11:26.590Z,101723.20
2022-10-07T00:14:02.089Z,101722.40
2022-10-07T00:16:37.251Z,101726.20
2022-10-07T00:19:14.043Z,101720.00
2022-10-07T00:21:47.467Z,101722.80
2022-10-07T00:24:20.665Z,101727.60
2022-10-07T00:26:54.214Z,101726.00
2022-10-07T00:29:29.339Z,101722.20
2022-10-07T00:32:02.546Z,101724.80
2022-10-07T00:34:35.743Z,101723.00
2022-10-07T00:37:09.182Z,101719.40
2022-10-07T00:39:43.657Z,101718.00
2022-10-07T00:42:18.201Z,101715.80
2022-10-07T00:44:52.452Z,101711.60
2022-10-07T00:47:32.387Z,101712.60
2022-10-07T00:50:10.342Z,101718.00
2022-10-07T00:52:49.679Z,101709.60
2022-10-07T00:55:27.820Z,101714.40
2022-10-07T00:58:08.199Z,101710.60
2022-10-07T01:00:42.754Z,101705.20
2022-10-07T01:03:17.703Z,101706.80
2022-10-07T01:05:51.133Z,101704.00
2022-10-07T01:08:26.058Z,101703.00
2022-10-07T01:11:15.156Z,101699.60
2022-10-07T01:14:07.114Z,101697.20
2022-10-07T01:16:50.467Z,101700.20
2022-10-07T01:19:43.498Z,101695.80
2022-10-07T01:22:31.474Z,101695.20
2022-10-07T01:25:23.204Z,101689.80
2022-10-07T01:28:00.967Z,101684.00
2022-10-07T01:30:37.550Z,101684.20
2022-10-07T01:33:15.926Z,101677.80
2022-10-07T01:35:52.112Z,101675.00
2022-10-07T01:38:27.598Z,101675.80
2022-10-07T01:41:04.874Z,101674.20
2022-10-07T01:43:40.631Z,101672.00
2022-10-07T01:46:18.604Z,101668.40
2022-10-07T01:48:52.490Z,101672.20
2022-10-07T01:51:29.939Z,101670.00
2022-10-07T01:54:17.410Z,101667.20
2022-10-07T01:57:05.514Z,101658.80
2022-10-07T02:00:08.040Z,101664.00
2022-10-07T02:03:23.150Z,101657.80
2022-10-07T02:06:02.897Z,101659.00
2022-10-07T02:08:43.756Z,101654.80
2022-10-07T02:11:20.942Z,101654.80
2022-10-07T02:14:06.143Z,101649.00
2022-10-07T02:16:44.292Z,101643.60
2022-10-07T02:19:22.731Z,101642.80
2022-10-07T02:21:59.565Z,101640.20
2022-10-07T02:24:36.884Z,101637.80
2022-10-07T02:27:15.116Z,101639.20
2022-10-07T02:29:54.383Z,101636.00
2022-10-07T02:32:30.488Z,101638.40
2022-10-07T02:35:13.339Z,101636.20
2022-10-07T02:37:48.057Z,101629.60
2022-10-07T02:40:22.143Z,101629.60
2022-10-07T02:43:01.710Z,101624.40
2022-10-07T02:45:46.205Z,101629.60
2022-10-07T02:48:24.883Z,101629.20
2022-10-07T02:51:02.165Z,101629.20
2022-10-07T02:53:37.101Z,101629.00
2022-10-07T02:56:10.455Z,101632.00
2022-10-07T02:58:47.451Z,101625.20
2022-10-07T03:01:27.898Z,101625.20
2022-10-07T03:04:01.425Z,101620.40
2022-10-07T03:06:36.149Z,101615.20
2022-10-07T03:09:09.225Z,101611.20
2022-10-07T03:11:42.375Z,101607.80
2022-10-07T03:14:15.771Z,101602.60
2022-10-07T03:16:48.587Z,101601.60
2022-10-07T03:19:21.486Z,101603.20
2022-10-07T03:22:02.570Z,101607.40
2022-10-07T03:24:36.682Z,101605.20
2022-10-07T03:27:09.745Z,101602.40
2022-10-07T03:29:43.723Z,101597.40
2022-10-07T03:32:16.904Z,101596.20
2022-10-07T03:34:49.784Z,101600.60
2022-10-07T03:37:22.832Z,101596.20
2022-10-07T03:39:55.861Z,101593.00
2022-10-07T03:42:28.952Z,101597.00
2022-10-07T03:45:02.526Z,101591.80
2022-10-07T03:47:35.923Z,101590.80
2022-10-07T03:50:10.239Z,101589.40
2022-10-07T03:52:45.827Z,101583.00
2022-10-07T03:55:19.341Z,101584.60
2022-10-07T03:57:58.367Z,101580.80
2022-10-07T04:00:33.094Z,101578.60
2022-10-07T04:03:07.930Z,101578.00
2022-10-07T04:05:41.166Z,101575.40
2022-10-07T04:08:18.131Z,101573.20
2022-10-07T04:10:50.931Z,101572.20
2022-10-07T04:13:24.177Z,101567.60
2022-10-07T04:15:58.005Z,101570.00
2022-10-07T04:18:31.124Z,101568.60
2022-10-07T04:21:05.325Z,101561.40
2022-10-07T04:23:41.393Z,101557.00
2022-10-07T04:26:15.447Z,101559.60
2022-10-07T04:28:51.593Z,101556.20
2022-10-07T04:31:26.270Z,101556.80
2022-10-07T04:34:03.721Z,101556.40
2022-10-07T04:36:41.669Z,101552.60
2022-10-07T04:39:17.439Z,101549.20
2022-10-07T04:41:57.809Z,101549.60
2022-10-07T04:44:35.227Z,101547.00
2022-10-07T04:47:11.190Z,101542.40
2022-10-07T04:49:44.311Z,101543.80
2022-10-07T04:52:18.155Z,101545.60
2022-10-07T04:54:51.829Z,101546.40
2022-10-07T04:57:24.985Z,101547.40
2022-10-07T04:59:57.918Z,101546.20
2022-10-07T05:02:30.936Z,101549.00
2022-10-07T05:05:04.558Z,101543.80
2022-10-07T05:07:37.673Z,101539.40
2022-10-07T05:10:12.487Z,101545.00
2022-10-07T05:12:45.491Z,101546.20
2022-10-07T05:15:18.881Z,101541.60
2022-10-07T05:17:52.907Z,101538.60
2022-10-07T05:20:27.064Z,101537.60
2022-10-07T05:23:00.122Z,101542.00
2022-10-07T05:25:33.099Z,101534.00
2022-10-07T05:28:06.684Z,101534.20
2022-10-07T05:30:40.183Z,101532.60
2022-10-07T05:33:13.860Z,101533.00
2022-10-07T05:35:51.639Z,101529.80
2022-10-07T05:38:24.644Z,101530.80
2022-10-07T05:41:02.886Z,101533.40
2022-10-07T05:43:42.340Z,101529.80
2022-10-07T05:46:22.027Z,101523.20
2022-10-07T05:48:58.254Z,101524.40
2022-10-07T05:51:34.767Z,101525.00
2022-10-07T05:54:08.606Z,101523.20
2022-10-07T05:56:44.551Z,101517.20
2022-10-07T05:59:17.804Z,101525.80
2022-10-07T06:01:51.231Z,101523.40
2022-10-07T06:04:27.006Z,101521.60
2022-10-07T06:07:00.667Z,101521.00
2022-10-07T06:09:51.255Z,101514.40
2022-10-07T06:12:42.135Z,101507.60
2022-10-07T06:15:16.979Z,101512.20
2022-10-07T06:17:51.221Z,101507.80
2022-10-07T06:20:25.073Z,101509.80
2022-10-07T06:22:59.087Z,101507.00
2022-10-07T06:25:32.737Z,101512.40
2022-10-07T06:28:06.105Z,101510.40
2022-10-07T06:30:42.233Z,101510.60
2022-10-07T06:33:16.059Z,101511.20
2022-10-07T06:35:49.417Z,101508.40
2022-10-07T06:38:22.729Z,101510.20
2022-10-07T06:41:01.637Z,101502.40
2022-10-07T06:43:37.078Z,101506.60
2022-10-07T06:46:19.257Z,101501.40
2022-10-07T06:48:54.403Z,101501.80
2022-10-07T06:51:27.535Z,101506.00
2022-10-07T06:54:00.721Z,101505.00
2022-10-07T06:56:33.973Z,101508.20
2022-10-07T06:59:07.428Z,101511.40
2022-10-07T07:01:51.483Z,101502.60
2022-10-07T07:04:24.730Z,101502.20
2022-10-07T07:06:58.071Z,101502.20
2022-10-07T07:09:32.904Z,101502.20
2022-10-07T07:12:06.436Z,101502.80
2022-10-07T07:14:43.279Z,101495.40
2022-10-07T07:17:20.195Z,101492.80
2022-10-07T07:19:53.303Z,101493.60
2022-10-07T07:22:26.175Z,101499.20
2022-10-07T07:24:59.168Z,101492.80
2022-10-07T07:27:32.667Z,101488.60
2022-10-07T07:30:06.143Z,101488.00
2022-10-07T07:32:39.251Z,101483.60
2022-10-07T07:35:14.191Z,101486.20
2022-10-07T07:37:48.916Z,101480.40
2022-10-07T07:40:22.992Z,101481.80
2022-10-07T07:42:56.943Z,101478.60
2022-10-07T07:45:33.243Z,101477.00
2022-10-07T07:48:06.347Z,101474.00
2022-10-07T07:50:43.420Z,101467.40
2022-10-07T07:53:16.920Z,101467.00
2022-10-07T07:55:58.609Z,101462.20
2022-10-07T07:58:32.064Z,101458.00
2022-10-07T08:01:07.751Z,101459.80
2022-10-07T08:03:43.306Z,101449.00
2022-10-07T08:06:19.583Z,101449.20
2022-10-07T08:08:53.914Z,101446.40
2022-10-07T08:11:28.357Z,101440.20
2022-10-07T08:14:03.391Z,101440.40
2022-10-07T08:16:38.187Z,101431.60
2022-10-07T08:19:12.533Z,101424.00
2022-10-07T08:21:45.926Z,101425.80
2022-10-07T08:24:25.172Z,101418.20
2022-10-07T08:26:58.793Z,101416.60
2022-10-07T08:29:31.995Z,101414.60
2022-10-07T08:32:04.921Z,101413.80
2022-10-07T08:34:37.800Z,101416.60
2022-10-07T08:37:10.645Z,101408.80
2022-10-07T08:39:43.531Z,101406.00
2022-10-07T08:42:27.042Z,101408.60
2022-10-07T08:45:00.860Z,101406.40
2022-10-07T08:47:38.207Z,101401.20
2022-10-07T08:50:19.798Z,101397.80
2022-10-07T08:53:00.207Z,101389.20
2022-10-07T08:55:42.241Z,101391.80
2022-10-07T08:58:52.981Z,101388.60
2022-10-07T09:01:38.364Z,101384.40
2022-10-07T09:04:24.598Z,101391.60
2022-10-07T09:07:03.667Z,101385.00
2022-10-07T09:09:44.639Z,101382.00
2022-10-07T09:12:23.145Z,101380.20
2022-10-07T09:15:00.433Z,101380.00
2022-10-07T09:17:37.243Z,101379.60
2022-10-07T09:20:17.803Z,101369.60
2022-10-07T09:22:57.433Z,101364.20
2022-10-07T09:25:35.019Z,101361.40
2022-10-07T09:28:07.928Z,101364.00
2022-10-07T09:30:42.453Z,101354.60
2022-10-07T09:33:20.737Z,101346.80
2022-10-07T09:35:58.236Z,101340.00
2022-10-07T09:38:40.637Z,101333.60
2022-10-07T09:41:20.908Z,101337.40
2022-10-07T09:44:22.879Z,101328.00
2022-10-07T09:46:59.660Z,101325.40
2022-10-07T09:49:43.196Z,101319.00
2022-10-07T09:52:24.702Z,101327.40
2022-10-07T09:55:19.145Z,101323.20
2022-10-07T09:58:02.286Z,101319.40
2022-10-07T10:00:43.181Z,101326.80
2022-10-07T10:03:17.032Z,101312.40
2022-10-07T10:05:59.534Z,101311.80
2022-10-07T10:08:36.033Z,101307.20
2022-10-07T10:11:25.914Z,101301.20
2022-10-07T10:13:59.330Z,101312.80
2022-10-07T10:16:40.720Z,101304.60
2022-10-07T10:19:27.866Z,101292.60
2022-10-07T10:22:00.871Z,101296.00
2022-10-07T10:24:53.616Z,101295.00
2022-10-07T10:27:32.956Z,101292.00
2022-10-07T10:30:09.210Z,101294.40
2022-10-07T10:33:20.581Z,101294.60
2022-10-07T10:36:05.350Z,101289.00
2022-10-07T10:38:47.916Z,101287.40
2022-10-07T10:41:31.596Z,101281.40
2022-10-07T10:44:25.491Z,101273.20
2022-10-07T10:47:05.338Z,101262.80
2022-10-07T10:49:45.546Z,101252.60
2022-10-07T10:52:45.561Z,101249.40
2022-10-07T10:56:00.639Z,101247.20
2022-10-07T10:58:47.140Z,101241.20
2022-10-07T11:01:28.688Z,101239.60
2022-10-07T11:04:30.425Z,101234.40
2022-10-07T11:07:09.477Z,101228.80
2022-10-07T11:09:48.195Z,101217.00
2022-10-07T11:12:28.969Z,101212.80
2022-10-07T11:15:08.535Z,101207.00
2022-10-07T11:17:41.887Z,101206.20
2022-10-07T11:20:25.331Z,101206.60
2022-10-07T11:23:03.703Z,101206.20
2022-10-07T11:25:43.728Z,101199.60
2022-10-07T11:28:23.945Z,101189.60
2022-10-07T11:31:15.951Z,101184.00
2022-10-07T11:33:54.647Z,101179.40
2022-10-07T11:36:39.721Z,101175.60
2022-10-07T11:39:14.066Z,101173.80
2022-10-07T11:41:55.690Z,101170.20
2022-10-07T11:44:33.628Z,101165.60
2022-10-07T11:47:08.701Z,101163.00
2022-10-07T11:49:48.051Z,101159.20
2022-10-07T11:52:26.929Z,101156.40
2022-10-07T11:55:01.717Z,101152.40
2022-10-07T11:57:38.913Z,101151.00
2022-10-07T12:00:27.704Z,101140.40
2022-10-07T12:03:12.119Z,101138.60
2022-10-07T12:06:16.368Z,101132.20
2022-10-07T12:08:49.555Z,101127.20
2022-10-07T12:11:51.080Z,101120.60
2022-10-07T12:14:43.879Z,101120.00
2022-10-07T12:17:30.335Z,101112.40
2022-10-07T12:20:57.924Z,101107.00
2022-10-07T12:23:49.844Z,101100.80
2022-10-07T12:26:56.470Z,101100.60
2022-10-07T12:29:48.592Z,101102.00
2022-10-07T12:32:58.036Z,101098.20
2022-10-07T12:35:54.585Z,101087.40
2022-10-07T12:38:31.103Z,101080.00
2022-10-07T12:41:26.141Z,101075.00
2022-10-07T12:44:08.773Z,101070.80
2022-10-07T12:46:51.183Z,101069.80
2022-10-07T12:49:31.337Z,101064.40
2022-10-07T12:52:07.564Z,101065.00
2022-10-07T12:54:48.801Z,101061.20
2022-10-07T12:57:25.224Z,101054.00
2022-10-07T13:00:08.114Z,101050.00
2022-10-07T13:03:36.276Z,101053.00
2022-10-07T13:06:57.441Z,101049.60
2022-10-07T13:09:53.775Z,101042.80
2022-10-07T13:12:52.064Z,101037.80
2022-10-07T13:15:35.461Z,101030.60
2022-10-07T13:18:17.152Z,101029.00
2022-10-07T13:21:07.967Z,101031.60
2022-10-07T13:23:40.789Z,101019.60
2022-10-07T13:26:15.391Z,101012.60
2022-10-07T13:28:53.258Z,101014.40
2022-10-07T13:31:28.382Z,101012.40
2022-10-07T13:34:15.370Z,101012.60
2022-10-07T13:36:48.226Z,101005.80
2022-10-07T13:39:26.018Z,101001.60
2022-10-07T13:42:01.413Z,100991.00
2022-10-07T13:44:35.605Z,100985.40
2022-10-07T13:47:11.729Z,100982.80
2022-10-07T13:49:48.394Z,100982.00
2022-10-07T13:52:30.436Z,100975.80
2022-10-07T13:55:03.395Z,100963.80
2022-10-07T13:57:44.048Z,100960.60
2022-10-07T14:00:18.981Z,100955.20
2022-10-07T14:02:52.738Z,100952.00
2022-10-07T14:05:28.679Z,100943.20
2022-10-07T14:08:14.276Z,100940.40
2022-10-07T14:10:58.384Z,100935.80
2022-10-07T14:13:31.817Z,100933.40
2022-10-07T14:16:05.453Z,100932.60
2022-10-07T14:18:43.881Z,100924.80
2022-10-07T14:21:17.659Z,100918.00
2022-10-07T14:23:50.545Z,100916.40
2022-10-07T14:26:24.821Z,100920.80
2022-10-07T14:28:58.183Z,100913.20
2022-10-07T14:31:48.304Z,100911.00
2022-10-07T14:34:40.033Z,100899.80
2022-10-07T14:37:28.467Z,100895.40
2022-10-07T14:40:03.826Z,100896.00
2022-10-07T14:42:39.382Z,100892.60
2022-10-07T14:45:18.687Z,100888.60
2022-10-07T14:47:51.665Z,100882.00
2022-10-07T14:50:25.051Z,100877.80
2022-10-07T14:52:58.499Z,100877.60
2022-10-07T14:55:33.347Z,100870.60
2022-10-07T14:58:06.214Z,100865.00
2022-10-07T15:00:39.899Z,100858.00
2022-10-07T15:03:13.859Z,100853.20
2022-10-07T15:05:47.426Z,100846.40
2022-10-07T15:08:21.471Z,100846.80
2022-10-07T15:10:54.346Z,100844.20
2022-10-07T15:13:28.437Z,100843.40
2022-10-07T15:16:01.607Z,100838.40
2022-10-07T15:18:34.517Z,100836.40
2022-10-07T15:21:07.944Z,100835.20
2022-10-07T15:23:41.175Z,100832.60
2022-10-07T15:26:14.665Z,100835.20
2022-10-07T15:28:50.459Z,100834.40
2022-10-07T15:31:24.626Z,100834.60
2022-10-07T15:33:58.758Z,100833.00
2022-10-07T15:36:32.872Z,100831.40
2022-10-07T15:39:06.346Z,100826.80
2022-10-07T15:41:42.168Z,100824.60
2022-10-07T15:44:19.509Z,100824.00
2022-10-07T15:46:56.261Z,100818.80
2022-10-07T15:49:29.102Z,100818.40
2022-10-07T15:52:02.001Z,100814.40
2022-10-07T15:54:35.691Z,100815.20
2022-10-07T15:57:09.603Z,100810.60
2022-10-07T15:59:42.667Z,100816.80
2022-10-07T16:02:19.260Z,100807.60
2022-10-07T16:04:52.393Z,100804.80
2022-10-07T16:07:25.411Z,100805.20
2022-10-07T16:09:58.199Z,100804.20
2022-10-07T16:12:31.208Z,100805.00
2022-10-07T16:15:05.199Z,100804.20
2022-10-07T16:17:38.131Z,100800.00
2022-10-07T16:20:15.503Z,100800.40
2022-10-07T16:22:48.681Z,100797.20
2022-10-07T16:25:21.716Z,100791.20
2022-10-07T16:28:11.838Z,100789.20
2022-10-07T16:30:51.368Z,100791.00
2022-10-07T16:33:24.262Z,100792.80
2022-10-07T16:35:57.381Z,100791.40
2022-10-07T16:38:30.495Z,100787.60
2022-10-07T16:41:03.514Z,100782.20
2022-10-07T16:43:36.374Z,100783.60
2022-10-07T16:46:13.341Z,100783.00
2022-10-07T16:48:48.301Z,100780.60
2022-10-07T16:51:23.526Z,100776.40
2022-10-07T16:54:03.026Z,100780.00
2022-10-07T16:56:37.100Z,100777.40
2022-10-07T16:59:11.675Z,100775.00
2022-10-07T17:01:44.635Z,100773.60
2022-10-07T17:04:18.160Z,100774.80
2022-10-07T17:06:51.093Z,100775.40
2022-10-07T17:09:25.479Z,100767.20
2022-10-07T17:11:59.726Z,100766.40
2022-10-07T17:14:33.830Z,100762.40
2022-10-07T17:17:07.999Z,100759.40
2022-10-07T17:19:40.901Z,100759.00
2022-10-07T17:22:14.285Z,100760.40
2022-10-07T17:24:47.409Z,100755.40
2022-10-07T17:27:20.544Z,100755.20
2022-10-07T17:29:53.432Z,100754.40
2022-10-07T17:32:27.619Z,100749.00
2022-10-07T17:35:00.487Z,100746.20
2022-10-07T17:37:34.008Z,100747.20
2022-10-07T17:40:07.759Z,100738.40
2022-10-07T17:42:40.749Z,100742.40
2022-10-07T17:45:14.782Z,100743.00
2022-10-07T17:47:48.311Z,100738.00
2022-10-07T17:50:21.894Z,100737.20
2022-10-07T17:52:54.979Z,100736.60
2022-10-07T17:55:27.819Z,100736.20
2022-10-07T17:58:00.677Z,100730.20
2022-10-07T18:00:33.631Z,100726.80
2022-10-07T18:03:06.782Z,100725.00
2022-10-07T18:05:40.058Z,100719.80
2022-10-07T18:08:13.925Z,100719.40
2022-10-07T18:10:47.216Z,100716.80
2022-10-07T18:13:37.555Z,100714.60
2022-10-07T18:16:14.180Z,100717.20
2022-10-07T18:18:47.522Z,100714.20
2022-10-07T18:21:22.475Z,100714.80
2022-10-07T18:23:57.057Z,100714.80
2022-10-07T18:26:29.997Z,100720.00
2022-10-07T18:29:03.014Z,100713.80
2022-10-07T18:31:36.054Z,100710.40
2022-10-07T18:34:09.951Z,100706.00
2022-10-07T18:36:42.841Z,100701.20
2022-10-07T18:39:15.722Z,100697.20
2022-10-07T18:41:48.568Z,100697.40
2022-10-07T18:44:21.517Z,100699.00
2022-10-07T18:46:55.311Z,100694.40
2022-10-07T18:49:28.616Z,100692.00
2022-10-07T18:52:01.573Z,100690.20
2022-10-07T18:54:34.565Z,100684.80
2022-10-07T18:57:07.854Z,100690.20
2022-10-07T18:59:40.712Z,100688.00
2022-10-07T19:02:14.872Z,100688.60
2022-10-07T19:04:47.955Z,100684.60
2022-10-07T19:07:20.792Z,100685.80
2022-10-07T19:09:53.700Z,100682.80
2022-10-07T19:12:43.986Z,100682.40
2022-10-07T19:15:17.159Z,100678.80
2022-10-07T19:17:50.765Z,100682.20
2022-10-07T19:20:24.425Z,100679.20
2022-10-07T19:22:57.569Z,100683.80
2022-10-07T19:25:48.765Z,100682.80
2022-10-07T19:28:22.032Z,100684.20
2022-10-07T19:30:56.648Z,100683.60
2022-10-07T19:33:29.478Z,100675.80
2022-10-07T19:36:02.619Z,100673.40
2022-10-07T19:38:35.408Z,100674.00
2022-10-07T19:41:12.128Z,100674.60
2022-10-07T19:43:46.664Z,100671.00
2022-10-07T19:46:21.575Z,100669.00
2022-10-07T19:48:57.099Z,100669.40
2022-10-07T19:51:31.821Z,100666.60
2022-10-07T19:54:10.865Z,100665.20
2022-10-07T19:56:45.509Z,100663.40
2022-10-07T19:59:18.631Z,100661.00
2022-10-07T20:01:52.242Z,100652.80
2022-10-07T20:04:25.110Z,100656.00
2022-10-07T20:06:59.210Z,100656.60
2022-10-07T20:09:32.053Z,100659.20
2022-10-07T20:12:05.233Z,100657.20
2022-10-07T20:14:38.057Z,100661.20
2022-10-07T20:17:11.466Z,100659.20
2022-10-07T20:19:44.238Z,100659.20
2022-10-07T20:22:17.057Z,100653.20
2022-10-07T20:24:50.273Z,100655.00
2022-10-07T20:27:23.132Z,100653.00
2022-10-07T20:29:59.147Z,100649.00
2022-10-07T20:32:34.167Z,100645.20
2022-10-07T20:35:11.723Z,100642.00
2022-10-07T20:37:44.538Z,100636.20
2022-10-07T20:40:35.150Z,100634.00
2022-10-07T20:43:07.924Z,100637.20
2022-10-07T20:45:54.928Z,100636.60
2022-10-07T20:48:31.663Z,100631.40
2022-10-07T20:51:10.481Z,100633.60
2022-10-07T20:53:48.288Z,100629.40
2022-10-07T20:56:21.286Z,100626.20
2022-10-07T20:58:54.497Z,100622.80
2022-10-07T21:01:28.503Z,100620.80
2022-10-07T21:04:01.467Z,100618.40
2022-10-07T21:06:34.333Z,100619.20
2022-10-07T21:09:07.709Z,100622.80
2022-10-07T21:11:40.732Z,100618.00
2022-10-07T21:14:15.267Z,100616.60
2022-10-07T21:16:48.999Z,100620.40
2022-10-07T21:19:21.945Z,100617.40
2022-10-07T21:21:55.229Z,100616.80
2022-10-07T21:24:28.223Z,100615.60
2022-10-07T21:27:01.033Z,100610.00
2022-10-07T21:29:39.019Z,100612.60
2022-10-07T21:32:13.934Z,100605.60
2022-10-07T21:34:46.697Z,100604.80
2022-10-07T21:37:19.581Z,100600.60
2022-10-07T21:39:52.753Z,100603.00
2022-10-07T21:42:25.693Z,100596.00
2022-10-07T21:44:58.483Z,100589.80
2022-10-07T21:47:31.222Z,100593.20
2022-10-07T21:50:04.078Z,100588.60
2022-10-07T21:52:36.887Z,100587.40
2022-10-07T21:55:10.785Z,100586.20
2022-10-07T21:57:43.907Z,100584.20
2022-10-07T22:00:19.015Z,100583.20
2022-10-07T22:02:52.938Z,100576.20
2022-10-07T22:05:25.878Z,100569.60
2022-10-07T22:08:15.250Z,100569.60
2022-10-07T22:10:48.224Z,100568.80
2022-10-07T22:13:21.013Z,100563.20
2022-10-07T22:15:54.085Z,100558.40
2022-10-07T22:18:27.004Z,100552.20
2022-10-07T22:20:59.803Z,100555.20
2022-10-07T22:23:32.605Z,100548.80
2022-10-07T22:26:12.570Z,100548.80
2022-10-07T22:28:46.687Z,100546.80
2022-10-07T22:31:20.352Z,100545.20
2022-10-07T22:33:58.638Z,100546.00
2022-10-07T22:36:32.834Z,100549.40
2022-10-07T22:39:05.875Z,100546.60
2022-10-07T22:41:40.501Z,100542.20
2022-10-07T22:44:13.663Z,100540.60
2022-10-07T22:46:46.502Z,100533.40
2022-10-07T22:49:19.511Z,100531.60
2022-10-07T22:51:52.328Z,100533.60
2022-10-07T22:54:25.132Z,100529.80
2022-10-07T22:56:58.041Z,100529.40
2022-10-07T22:59:30.863Z,100527.60
2022-10-07T23:02:04.031Z,100525.60
2022-10-07T23:04:36.814Z,100529.20
2022-10-07T23:07:10.863Z,100524.40
2022-10-07T23:09:43.818Z,100522.20
2022-10-07T23:12:16.668Z,100528.00
2022-10-07T23:14:49.381Z,100527.60
2022-10-07T23:17:22.493Z,100527.80
2022-10-07T23:19:55.737Z,100527.80
2022-10-07T23:22:28.892Z,100530.20
2022-10-07T23:25:04.581Z,100526.00
2022-10-07T23:27:39.457Z,100524.40
2022-10-07T23:30:15.150Z,100525.80
2022-10-07T23:32:50.083Z,100524.00
2022-10-07T23:35:22.870Z,100522.20
2022-10-07T23:37:56.481Z,100524.80
2022-10-07T23:40:29.309Z,100523.40
2022-10-07T23:43:02.227Z,100517.80
2022-10-07T23:45:35.135Z,100520.80
2022-10-07T23:48:08.255Z,100524.40
2022-10-07T23:50:45.576Z,100527.20
2022-10-07T23:53:18.458Z,100526.60
2022-10-07T23:55:54.321Z,100525.80
2022-10-07T23:58:30.469Z,100519.80
